Time;durP1;ratioP1;P1;durP2;ratioP2;P2;SDS_P1;SDS_P2;PMS_P1;PMS_P2;Temp;Humidity;BMP_temperature;BMP_pressure;BME280_temperature;BME280_humidity;BME280_pressure;Samples;Min_cycle;Max_cycle;Signal;HPM_P1;HPM_P2
2023/12/16 00:02:36;;;;;;;;;;;7.50;99.90;;;;;;5024229;28;19968;-76
2023/12/16 00:05:22;;;;;;;;;;;7.60;99.90;;;;;;5023755;28;20234;-76
2023/12/16 00:08:08;;;;;;;;;;;7.50;99.90;;;;;;5023250;28;19963;-76
2023/12/16 00:10:54;;;;;;;;;;;7.50;99.90;;;;;;5023507;28;20344;-76
2023/12/16 00:13:40;;;;;;;;;;;7.50;99.90;;;;;;5024830;28;19952;-76
2023/12/16 00:16:26;;;;;;;;;;;7.50;99.90;;;;;;5029768;28;19958;-76
2023/12/16 00:19:12;;;;;;;;;;;7.50;99.90;;;;;;5022772;28;19924;-76
2023/12/16 00:21:58;;;;;;;;;;;7.50;99.90;;;;;;5023739;28;20405;-76
2023/12/16 00:24:44;;;;;;;;;;;7.50;99.90;;;;;;5013332;28;20333;-76
2023/12/16 00:27:30;;;;;;;;;;;7.50;99.90;;;;;;5022829;28;19908;-76
2023/12/16 00:30:16;;;;;;;;;;;7.50;99.90;;;;;;5022343;28;19945;-76
2023/12/16 00:33:02;;;;;;;;;;;7.50;99.90;;;;;;5007947;28;19916;-76
2023/12/16 00:35:49;;;;;;;;;;;7.50;99.90;;;;;;5023301;28;19924;-76
2023/12/16 00:38:35;;;;;;;;;;;7.50;99.90;;;;;;5009166;28;19909;-76
2023/12/16 00:41:21;;;;;;;;;;;7.40;99.90;;;;;;5021934;28;20301;-76
2023/12/16 00:44:07;;;;;;;;;;;7.50;99.90;;;;;;5021478;28;20044;-76
2023/12/16 00:46:53;;;;;;;;;;;7.40;99.90;;;;;;4999231;28;19913;-76
2023/12/16 00:49:39;;;;;;;;;;;7.50;99.90;;;;;;5022260;28;19917;-76
2023/12/16 00:52:25;;;;;;;;;;;7.50;99.90;;;;;;5037251;28;20258;-76
2023/12/16 00:55:11;;;;;;;;;;;7.50;99.90;;;;;;5008485;28;19924;-76
2023/12/16 00:57:57;;;;;;;;;;;7.50;99.90;;;;;;5021810;28;19916;-76
2023/12/16 01:00:42;;;;;;;;;;;7.50;99.90;;;;;;5028629;28;19935;-76
2023/12/16 01:03:28;;;;;;;;;;;7.50;99.90;;;;;;5003800;28;20361;-76
2023/12/16 01:06:14;;;;;;;;;;;7.40;99.90;;;;;;5004923;28;19940;-76
2023/12/16 01:09:00;;;;;;;;;;;7.40;99.90;;;;;;5017331;28;19909;-76
2023/12/16 01:11:46;;;;;;;;;;;7.50;99.90;;;;;;5016414;28;19919;-76
2023/12/16 01:14:32;;;;;;;;;;;7.50;99.90;;;;;;5034469;28;19909;-76
2023/12/16 01:17:18;;;;;;;;;;;7.40;99.90;;;;;;5008372;28;19917;-76
2023/12/16 01:20:05;;;;;;;;;;;7.40;99.90;;;;;;5008709;28;20314;-76
2023/12/16 01:22:51;;;;;;;;;;;7.40;99.90;;;;;;5022495;28;20241;-76
2023/12/16 01:25:36;;;;;;;;;;;7.40;99.90;;;;;;5009206;28;19917;-76
2023/12/16 01:28:22;;;;;;;;;;;7.40;99.90;;;;;;5004233;28;19964;-76
2023/12/16 01:31:08;;;;;;;;;;;7.40;99.90;;;;;;5022199;28;20051;-76
2023/12/16 01:33:54;;;;;;;;;;;7.40;99.90;;;;;;5021980;28;19935;-76
2023/12/16 01:36:40;;;;;;;;;;;7.40;99.90;;;;;;5008259;28;20329;-76
2023/12/16 01:39:26;;;;;;;;;;;7.40;99.90;;;;;;5015270;28;20439;-76
2023/12/16 01:42:12;;;;;;;;;;;7.40;99.90;;;;;;5000925;28;19917;-76
2023/12/16 01:44:59;;;;;;;;;;;7.40;99.90;;;;;;5002322;28;19909;-76
2023/12/16 01:47:46;;;;;;;;;;;7.30;99.90;;;;;;5002616;28;19909;-76
2023/12/16 01:50:33;;;;;;;;;;;7.30;99.90;;;;;;5004219;28;19968;-76
2023/12/16 01:53:20;;;;;;;;;;;7.40;99.90;;;;;;5002205;28;19920;-76
2023/12/16 01:56:07;;;;;;;;;;;7.40;99.90;;;;;;5014587;28;20114;-76
2023/12/16 01:58:53;;;;;;;;;;;7.40;99.90;;;;;;5019974;28;19928;-76
2023/12/16 02:01:40;;;;;;;;;;;7.40;99.90;;;;;;5020600;28;19917;-76
2023/12/16 02:04:26;;;;;;;;;;;7.30;99.90;;;;;;5035962;28;19924;-76
2023/12/16 02:07:13;;;;;;;;;;;7.30;99.90;;;;;;5008465;28;19929;-76
2023/12/16 02:10:01;;;;;;;;;;;7.30;99.90;;;;;;4988927;28;19913;-77
2023/12/16 02:12:47;;;;;;;;;;;7.30;99.90;;;;;;5015586;28;19917;-76
2023/12/16 02:15:33;;;;;;;;;;;7.30;99.90;;;;;;5019628;28;20322;-77
2023/12/16 02:18:19;;;;;;;;;;;7.30;99.90;;;;;;5007898;28;20324;-77
2023/12/16 02:21:05;;;;;;;;;;;7.30;99.90;;;;;;5021165;28;19909;-76
2023/12/16 02:23:51;;;;;;;;;;;7.20;99.90;;;;;;5022386;28;19913;-76
2023/12/16 02:26:38;;;;;;;;;;;7.20;99.90;;;;;;5020510;28;19921;-76
2023/12/16 02:29:24;;;;;;;;;;;7.20;99.90;;;;;;5021190;28;20004;-76
2023/12/16 02:32:10;;;;;;;;;;;7.20;99.90;;;;;;5036077;28;19917;-76
2023/12/16 02:34:56;;;;;;;;;;;7.20;99.90;;;;;;5021471;28;19909;-76
2023/12/16 02:37:41;;;;;;;;;;;7.20;99.90;;;;;;5022081;28;20598;-77
2023/12/16 02:40:27;;;;;;;;;;;7.20;99.90;;;;;;5021356;28;19967;-76
2023/12/16 02:43:14;;;;;;;;;;;7.20;99.90;;;;;;5008576;28;20003;-76
2023/12/16 02:46:00;;;;;;;;;;;7.20;99.90;;;;;;5021609;28;19962;-77
2023/12/16 02:48:46;;;;;;;;;;;7.20;99.90;;;;;;4987428;28;19990;-77
2023/12/16 02:51:32;;;;;;;;;;;7.20;99.90;;;;;;5001341;28;19913;-76
2023/12/16 02:54:18;;;;;;;;;;;7.20;99.90;;;;;;5018552;28;20310;-76
2023/12/16 02:57:04;;;;;;;;;;;7.20;99.90;;;;;;5020917;28;19923;-76
2023/12/16 02:59:50;;;;;;;;;;;7.20;99.90;;;;;;5021884;28;20360;-76
2023/12/16 03:02:37;;;;;;;;;;;7.20;99.90;;;;;;5020185;28;19920;-76
2023/12/16 03:05:23;;;;;;;;;;;7.20;99.90;;;;;;5007568;28;20000;-76
2023/12/16 03:08:10;;;;;;;;;;;7.20;99.90;;;;;;5023649;28;19909;-77
2023/12/16 03:10:56;;;;;;;;;;;7.20;99.90;;;;;;5009623;28;20387;-77
2023/12/16 03:13:42;;;;;;;;;;;7.20;99.90;;;;;;5022610;28;19936;-76
2023/12/16 03:16:28;;;;;;;;;;;7.20;99.90;;;;;;5009892;28;20079;-77
2023/12/16 03:19:14;;;;;;;;;;;7.30;99.90;;;;;;5023068;28;19913;-76
2023/12/16 03:22:00;;;;;;;;;;;7.20;99.90;;;;;;5024273;28;19996;-76
2023/12/16 03:24:46;;;;;;;;;;;7.30;99.90;;;;;;5010333;28;19970;-76
2023/12/16 03:27:32;;;;;;;;;;;7.30;99.90;;;;;;5028812;28;20218;-77
2023/12/16 03:30:18;;;;;;;;;;;7.20;99.90;;;;;;5023896;28;19909;-77
2023/12/16 03:33:04;;;;;;;;;;;7.30;99.90;;;;;;5028277;28;19909;-76
2023/12/16 03:35:50;;;;;;;;;;;7.20;99.90;;;;;;5024939;28;19913;-76
2023/12/16 03:38:35;;;;;;;;;;;7.20;99.90;;;;;;5004870;28;19924;-77
2023/12/16 03:41:21;;;;;;;;;;;7.30;99.90;;;;;;5021437;28;19909;-76
2023/12/16 03:44:07;;;;;;;;;;;7.20;99.90;;;;;;5002732;28;19916;-76
2023/12/16 03:46:53;;;;;;;;;;;7.30;99.90;;;;;;5025109;28;19978;-77
2023/12/16 03:49:40;;;;;;;;;;;7.30;99.90;;;;;;5019318;28;19924;-77
2023/12/16 03:52:26;;;;;;;;;;;7.30;99.90;;;;;;5037312;28;19909;-77
2023/12/16 03:55:12;;;;;;;;;;;7.30;99.90;;;;;;5024933;28;19946;-77
2023/12/16 03:57:58;;;;;;;;;;;7.30;99.90;;;;;;5003749;28;19988;-76
2023/12/16 04:00:44;;;;;;;;;;;7.30;99.90;;;;;;5003824;28;20013;-76
2023/12/16 04:03:30;;;;;;;;;;;7.30;99.90;;;;;;5008265;28;20337;-77
2023/12/16 04:06:17;;;;;;;;;;;7.30;99.90;;;;;;5015399;28;20000;-76
2023/12/16 04:09:03;;;;;;;;;;;7.40;99.90;;;;;;5010316;28;20035;-76
2023/12/16 04:11:49;;;;;;;;;;;7.30;99.90;;;;;;5013500;28;19920;-77
2023/12/16 04:14:38;;;;;;;;;;;7.40;99.90;;;;;;5036940;28;19939;-77
2023/12/16 04:17:24;;;;;;;;;;;7.40;99.90;;;;;;5037598;28;20211;-77
2023/12/16 04:20:10;;;;;;;;;;;7.30;99.90;;;;;;5037409;28;19920;-76
2023/12/16 04:22:56;;;;;;;;;;;7.30;99.90;;;;;;5037296;28;20349;-76
2023/12/16 04:25:42;;;;;;;;;;;7.30;99.90;;;;;;5023051;28;19913;-76
2023/12/16 04:28:28;;;;;;;;;;;7.30;99.90;;;;;;5023831;28;19908;-76
2023/12/16 04:31:16;;;;;;;;;;;7.30;99.90;;;;;;5038429;28;20538;-77
2023/12/16 04:34:02;;;;;;;;;;;7.30;99.90;;;;;;5016289;28;19913;-76
2023/12/16 04:36:48;;;;;;;;;;;7.40;99.90;;;;;;5022505;28;19992;-77
2023/12/16 04:39:34;;;;;;;;;;;7.40;99.90;;;;;;5013126;28;19909;-77
2023/12/16 04:42:22;;;;;;;;;;;7.40;99.90;;;;;;5031638;28;19992;-77
2023/12/16 04:45:08;;;;;;;;;;;7.30;99.90;;;;;;5023930;28;19909;-77
2023/12/16 04:47:54;;;;;;;;;;;7.30;99.90;;;;;;5031850;28;19909;-77
2023/12/16 04:50:40;;;;;;;;;;;7.40;99.90;;;;;;5036610;28;20285;-77
2023/12/16 04:53:26;;;;;;;;;;;7.40;99.90;;;;;;5021220;28;19909;-77
2023/12/16 04:56:12;;;;;;;;;;;7.30;99.90;;;;;;5009934;28;19924;-77
2023/12/16 04:58:57;;;;;;;;;;;7.40;99.90;;;;;;5022228;28;19913;-77
2023/12/16 05:01:44;;;;;;;;;;;7.40;99.90;;;;;;5022504;28;19921;-77
2023/12/16 05:04:29;;;;;;;;;;;7.40;99.90;;;;;;5024431;28;19919;-77
2023/12/16 05:07:15;;;;;;;;;;;7.40;99.90;;;;;;5022186;28;19913;-76
2023/12/16 05:10:01;;;;;;;;;;;7.40;99.90;;;;;;5023901;28;19951;-77
2023/12/16 05:12:47;;;;;;;;;;;7.40;99.90;;;;;;5022574;28;19913;-77
2023/12/16 05:15:33;;;;;;;;;;;7.40;99.90;;;;;;5023040;28;19923;-77
2023/12/16 05:18:19;;;;;;;;;;;7.40;99.90;;;;;;5022012;28;19913;-77
2023/12/16 05:21:05;;;;;;;;;;;7.40;99.90;;;;;;5009267;28;19920;-77
2023/12/16 05:23:51;;;;;;;;;;;7.40;99.90;;;;;;5022359;28;19991;-76
2023/12/16 05:26:37;;;;;;;;;;;7.50;99.90;;;;;;5022137;28;19935;-77
2023/12/16 05:29:23;;;;;;;;;;;7.40;99.90;;;;;;5021608;28;19948;-76
2023/12/16 05:32:09;;;;;;;;;;;7.40;99.90;;;;;;5021668;28;19909;-76
2023/12/16 05:34:56;;;;;;;;;;;7.40;99.90;;;;;;5022715;28;20016;-76
2023/12/16 05:37:41;;;;;;;;;;;7.40;99.90;;;;;;5008994;28;19913;-77
2023/12/16 05:40:28;;;;;;;;;;;7.40;99.90;;;;;;5022154;28;19924;-77
2023/12/16 05:43:13;;;;;;;;;;;7.40;99.90;;;;;;5012940;28;20043;-77
2023/12/16 05:46:01;;;;;;;;;;;7.40;99.90;;;;;;5017113;28;20352;-76
2023/12/16 05:48:47;;;;;;;;;;;7.40;99.90;;;;;;5017017;28;19920;-76
2023/12/16 05:51:40;;;;;;;;;;;7.40;99.90;;;;;;5032610;28;19920;-76
2023/12/16 05:54:25;;;;;;;;;;;7.40;99.90;;;;;;5022451;28;19944;-77
2023/12/16 05:57:11;;;;;;;;;;;7.40;99.90;;;;;;5022074;28;20312;-76
2023/12/16 05:59:57;;;;;;;;;;;7.40;99.90;;;;;;5022736;28;20246;-77
2023/12/16 06:02:43;;;;;;;;;;;7.40;99.90;;;;;;5012024;28;19917;-77
2023/12/16 06:05:29;;;;;;;;;;;7.40;99.90;;;;;;4993566;28;19909;-77
2023/12/16 06:08:15;;;;;;;;;;;7.40;99.90;;;;;;4999031;28;19919;-77
2023/12/16 06:11:01;;;;;;;;;;;7.40;99.90;;;;;;5021139;28;20352;-76
2023/12/16 06:13:48;;;;;;;;;;;7.40;99.90;;;;;;5036118;28;19920;-76
2023/12/16 06:16:33;;;;;;;;;;;7.40;99.90;;;;;;5035520;28;19912;-76
2023/12/16 06:19:19;;;;;;;;;;;7.40;99.90;;;;;;5032176;28;20232;-76
2023/12/16 06:22:07;;;;;;;;;;;7.40;99.90;;;;;;5010409;28;20276;-76
2023/12/16 06:24:53;;;;;;;;;;;7.40;99.90;;;;;;5035493;28;19978;-76
2023/12/16 06:27:40;;;;;;;;;;;7.40;99.90;;;;;;5005205;28;19941;-76
2023/12/16 06:30:26;;;;;;;;;;;7.40;99.90;;;;;;5002763;28;19909;-76
2023/12/16 06:33:14;;;;;;;;;;;7.40;99.90;;;;;;5030973;28;19913;-77
2023/12/16 06:35:59;;;;;;;;;;;7.40;99.90;;;;;;5021860;28;19924;-76
2023/12/16 06:38:45;;;;;;;;;;;7.40;99.90;;;;;;5007997;28;19940;-76
2023/12/16 06:41:31;;;;;;;;;;;7.40;99.90;;;;;;5035223;28;19999;-76
2023/12/16 06:44:17;;;;;;;;;;;7.30;99.90;;;;;;5007440;28;19917;-77
2023/12/16 06:47:03;;;;;;;;;;;7.40;99.90;;;;;;5036330;28;19913;-76
2023/12/16 06:49:49;;;;;;;;;;;7.40;99.90;;;;;;5018477;28;20326;-76
2023/12/16 06:52:36;;;;;;;;;;;7.40;99.90;;;;;;5020537;28;20391;-77
2023/12/16 06:55:22;;;;;;;;;;;7.40;99.90;;;;;;4986722;28;19964;-76
2023/12/16 06:58:08;;;;;;;;;;;7.40;99.90;;;;;;5032101;28;20350;-77
2023/12/16 07:00:54;;;;;;;;;;;7.40;99.90;;;;;;5020773;28;19921;-76
2023/12/16 07:03:40;;;;;;;;;;;7.40;99.90;;;;;;5019118;28;19919;-76
2023/12/16 07:06:27;;;;;;;;;;;7.40;99.90;;;;;;5001457;28;20234;-76
2023/12/16 07:09:13;;;;;;;;;;;7.40;99.90;;;;;;5001657;28;19910;-76
2023/12/16 07:11:59;;;;;;;;;;;7.40;99.90;;;;;;5019042;28;19913;-76
2023/12/16 07:14:45;;;;;;;;;;;7.40;99.90;;;;;;5001305;28;20304;-77
2023/12/16 07:17:31;;;;;;;;;;;7.40;99.90;;;;;;5003193;28;20575;-76
2023/12/16 07:20:17;;;;;;;;;;;7.40;99.90;;;;;;4994933;28;19924;-76
2023/12/16 07:23:04;;;;;;;;;;;7.40;99.90;;;;;;5000784;28;20303;-76
2023/12/16 07:25:50;;;;;;;;;;;7.30;99.90;;;;;;4981139;28;19948;-77
2023/12/16 07:28:36;;;;;;;;;;;7.40;99.90;;;;;;4982622;28;19964;-76
2023/12/16 07:31:22;;;;;;;;;;;7.40;99.90;;;;;;4994628;28;19918;-76
2023/12/16 07:34:10;;;;;;;;;;;7.40;99.90;;;;;;4997063;28;19914;-75
2023/12/16 07:36:56;;;;;;;;;;;7.40;99.90;;;;;;4980920;28;20297;-76
2023/12/16 07:39:42;;;;;;;;;;;7.30;99.90;;;;;;4995904;28;19909;-76
2023/12/16 07:42:29;;;;;;;;;;;7.30;99.90;;;;;;5000261;28;19913;-76
2023/12/16 07:45:15;;;;;;;;;;;7.30;99.90;;;;;;5000389;28;19948;-76
2023/12/16 07:48:02;;;;;;;;;;;7.30;99.90;;;;;;5001067;28;19945;-77
2023/12/16 07:50:48;;;;;;;;;;;7.30;99.90;;;;;;4987398;28;19913;-76
2023/12/16 07:53:34;;;;;;;;;;;7.30;99.90;;;;;;4989500;28;19920;-77
2023/12/16 07:56:20;;;;;;;;;;;7.30;99.90;;;;;;5004782;28;19913;-75
2023/12/16 07:59:06;;;;;;;;;;;7.30;99.90;;;;;;5020621;28;19912;-75
2023/12/16 08:01:53;;;;;;;;;;;7.30;99.90;;;;;;5008871;28;19917;-76
2023/12/16 08:04:40;;;;;;;;;;;7.30;99.90;;;;;;5030076;28;19948;-76
2023/12/16 08:07:26;;;;;;;;;;;7.30;99.90;;;;;;5015531;28;20334;-76
2023/12/16 08:10:12;;;;;;;;;;;7.30;99.90;;;;;;5007753;28;19909;-75
2023/12/16 08:12:58;;;;;;;;;;;7.30;99.90;;;;;;5015919;28;19909;-76
2023/12/16 08:15:45;;;;;;;;;;;7.30;99.90;;;;;;5027597;28;19967;-76
2023/12/16 08:18:31;;;;;;;;;;;7.30;99.90;;;;;;5031002;28;20223;-75
2023/12/16 08:21:18;;;;;;;;;;;7.30;99.90;;;;;;5031043;28;19913;-76
2023/12/16 08:24:05;;;;;;;;;;;7.30;99.90;;;;;;5029884;28;19997;-75
2023/12/16 08:26:51;;;;;;;;;;;7.30;99.90;;;;;;5000049;28;20035;-75
2023/12/16 08:29:38;;;;;;;;;;;7.20;99.90;;;;;;5011116;28;19923;-75
2023/12/16 08:32:23;;;;;;;;;;;7.20;99.90;;;;;;5011380;28;20392;-77
2023/12/16 08:35:09;;;;;;;;;;;7.20;99.90;;;;;;5016613;28;20290;-76
2023/12/16 08:38:00;;;;;;;;;;;7.20;99.90;;;;;;5017001;28;19920;-77
2023/12/16 08:40:46;;;;;;;;;;;7.20;99.90;;;;;;5013090;28;19914;-76
2023/12/16 08:43:32;;;;;;;;;;;7.20;99.90;;;;;;5013228;28;19921;-76
2023/12/16 08:46:23;;;;;;;;;;;7.20;99.90;;;;;;5000856;28;20310;-76
2023/12/16 08:49:09;;;;;;;;;;;7.10;99.90;;;;;;5016260;28;19952;-76
2023/12/16 08:51:57;;;;;;;;;;;7.10;99.90;;;;;;5029624;28;20211;-76
2023/12/16 08:54:43;;;;;;;;;;;7.10;99.90;;;;;;5030539;28;19945;-77
2023/12/16 08:57:29;;;;;;;;;;;7.10;99.90;;;;;;5030976;28;19964;-76
2023/12/16 09:00:15;;;;;;;;;;;7.10;99.90;;;;;;5030625;28;20346;-76
2023/12/16 09:03:02;;;;;;;;;;;7.10;99.90;;;;;;5030522;28;20020;-77
2023/12/16 09:05:48;;;;;;;;;;;7.20;99.90;;;;;;5017532;28;19917;-76
2023/12/16 09:08:34;;;;;;;;;;;7.20;99.90;;;;;;5027840;28;20200;-77
2023/12/16 09:11:20;;;;;;;;;;;7.30;99.90;;;;;;5008370;28;19992;-77
2023/12/16 09:14:06;;;;;;;;;;;7.30;99.90;;;;;;5002987;28;19909;-77
2023/12/16 09:16:52;;;;;;;;;;;7.40;99.90;;;;;;5023919;28;19925;-76
2023/12/16 09:19:38;;;;;;;;;;;7.40;99.90;;;;;;5012742;28;19960;-76
2023/12/16 09:22:24;;;;;;;;;;;7.40;99.90;;;;;;5016688;28;19913;-77
2023/12/16 09:25:14;;;;;;;;;;;7.50;99.90;;;;;;5015687;28;19913;-76
2023/12/16 09:27:59;;;;;;;;;;;7.60;99.90;;;;;;5029399;28;19971;-77
2023/12/16 09:30:45;;;;;;;;;;;7.60;99.90;;;;;;5015576;28;19945;-77
2023/12/16 09:33:31;;;;;;;;;;;7.70;99.90;;;;;;5029871;28;19988;-75
2023/12/16 09:36:17;;;;;;;;;;;7.80;99.90;;;;;;5025953;28;19917;-75
2023/12/16 09:39:04;;;;;;;;;;;7.90;99.90;;;;;;5016122;28;19909;-76
2023/12/16 09:41:51;;;;;;;;;;;7.90;99.90;;;;;;5009906;28;20281;-75
2023/12/16 09:44:37;;;;;;;;;;;8.00;99.90;;;;;;4998930;28;20465;-75
2023/12/16 09:47:24;;;;;;;;;;;8.10;99.90;;;;;;5003270;28;19909;-75
2023/12/16 09:50:10;;;;;;;;;;;8.10;99.90;;;;;;5015626;28;20000;-75
2023/12/16 09:52:56;;;;;;;;;;;8.20;99.90;;;;;;5016708;28;19909;-75
2023/12/16 09:55:42;;;;;;;;;;;8.20;99.90;;;;;;5002218;28;19979;-76
2023/12/16 09:58:29;;;;;;;;;;;8.20;99.90;;;;;;5015531;28;19910;-75
2023/12/16 10:01:17;;;;;;;;;;;8.20;99.90;;;;;;5032978;28;20004;-75
2023/12/16 10:04:03;;;;;;;;;;;8.20;99.90;;;;;;5021600;28;19913;-75
2023/12/16 10:06:49;;;;;;;;;;;8.20;99.90;;;;;;5027205;28;19909;-75
2023/12/16 10:09:36;;;;;;;;;;;8.30;99.90;;;;;;5018485;28;20234;-76
2023/12/16 10:12:22;;;;;;;;;;;8.20;99.90;;;;;;5035032;28;19909;-75
2023/12/16 10:15:08;;;;;;;;;;;8.20;99.90;;;;;;5007402;28;20353;-75
2023/12/16 10:17:54;;;;;;;;;;;8.20;99.90;;;;;;4989460;28;19909;-75
2023/12/16 10:20:40;;;;;;;;;;;8.20;99.90;;;;;;5017954;28;19909;-75
2023/12/16 10:23:26;;;;;;;;;;;8.20;99.90;;;;;;5008105;28;19920;-76
2023/12/16 10:26:11;;;;;;;;;;;8.20;99.90;;;;;;5007314;28;19909;-75
2023/12/16 10:28:59;;;;;;;;;;;8.20;99.90;;;;;;5020435;28;20223;-76
2023/12/16 10:31:45;;;;;;;;;;;8.30;99.90;;;;;;5035103;28;19940;-76
2023/12/16 10:34:31;;;;;;;;;;;8.40;99.90;;;;;;5020905;28;19917;-75
2023/12/16 10:37:19;;;;;;;;;;;8.50;99.90;;;;;;5035406;28;19936;-75
2023/12/16 10:40:05;;;;;;;;;;;8.50;99.90;;;;;;5020704;28;19924;-76
2023/12/16 10:42:51;;;;;;;;;;;8.50;99.90;;;;;;5020988;28;19909;-76
2023/12/16 10:45:37;;;;;;;;;;;8.50;99.90;;;;;;5020648;28;20015;-76
2023/12/16 10:48:23;;;;;;;;;;;8.60;99.90;;;;;;5021023;28;20297;-76
2023/12/16 10:51:09;;;;;;;;;;;8.60;99.90;;;;;;5006947;28;19940;-75
2023/12/16 10:54:09;;;;;;;;;;;8.60;99.90;;;;;;5020379;28;20012;-75
2023/12/16 10:57:01;;;;;;;;;;;8.60;99.90;;;;;;5034350;28;20003;-76
2023/12/16 11:00:07;;;;;;;;;;;8.60;99.90;;;;;;5022286;28;20334;-76
2023/12/16 11:03:12;;;;;;;;;;;8.70;99.90;;;;;;5029660;28;20346;-76
2023/12/16 11:06:02;;;;;;;;;;;8.80;99.90;;;;;;5028357;28;20303;-75
2023/12/16 11:08:48;;;;;;;;;;;8.80;99.90;;;;;;5025888;28;19944;-75
2023/12/16 11:11:34;;;;;;;;;;;8.80;99.90;;;;;;5017886;28;19910;-76
2023/12/16 11:14:20;;;;;;;;;;;8.90;99.90;;;;;;5023820;28;20234;-75
2023/12/16 11:17:11;;;;;;;;;;;8.90;99.90;;;;;;5013183;28;19917;-76
2023/12/16 11:20:06;;;;;;;;;;;8.80;99.90;;;;;;5026988;28;20343;-75
2023/12/16 11:22:52;;;;;;;;;;;8.80;99.90;;;;;;5028119;28;19917;-77
2023/12/16 11:25:38;;;;;;;;;;;8.80;99.90;;;;;;5029411;28;19984;-75
2023/12/16 11:28:25;;;;;;;;;;;8.80;99.90;;;;;;5018131;28;20549;-76
2023/12/16 11:31:11;;;;;;;;;;;8.80;99.90;;;;;;5022661;28;20589;-76
2023/12/16 11:33:57;;;;;;;;;;;8.80;99.90;;;;;;5017662;28;20215;-75
2023/12/16 11:36:46;;;;;;;;;;;8.80;99.90;;;;;;5017591;28;19913;-76
2023/12/16 11:39:38;;;;;;;;;;;8.80;99.90;;;;;;4984985;28;19921;-75
2023/12/16 11:42:43;;;;;;;;;;;8.90;99.90;;;;;;5012548;28;19945;-75
2023/12/16 11:45:32;;;;;;;;;;;8.90;99.90;;;;;;5018705;28;19920;-75
2023/12/16 11:48:18;;;;;;;;;;;8.90;99.90;;;;;;5031782;28;19924;-76
2023/12/16 11:51:04;;;;;;;;;;;8.90;99.90;;;;;;5031353;28;20314;-76
2023/12/16 11:53:50;;;;;;;;;;;8.90;99.90;;;;;;5028784;28;19919;-76
2023/12/16 11:56:36;;;;;;;;;;;9.00;99.90;;;;;;5019989;28;19924;-76
2023/12/16 11:59:24;;;;;;;;;;;9.00;99.90;;;;;;5017536;28;19909;-76
2023/12/16 12:02:10;;;;;;;;;;;9.00;99.90;;;;;;4984425;28;20307;-75
2023/12/16 12:04:59;;;;;;;;;;;9.10;99.90;;;;;;5011950;28;20302;-76
2023/12/16 12:07:45;;;;;;;;;;;9.10;99.90;;;;;;5016369;28;19909;-75
2023/12/16 12:10:33;;;;;;;;;;;9.20;99.90;;;;;;5019576;28;19909;-75
2023/12/16 12:13:20;;;;;;;;;;;9.30;99.90;;;;;;5030795;28;19920;-75
2023/12/16 12:16:06;;;;;;;;;;;9.40;99.90;;;;;;5030632;28;19960;-76
2023/12/16 12:18:52;;;;;;;;;;;9.60;99.90;;;;;;5017189;28;19909;-75
2023/12/16 12:21:38;;;;;;;;;;;9.60;99.90;;;;;;5030491;28;20366;-77
2023/12/16 12:24:24;;;;;;;;;;;9.50;99.90;;;;;;5024286;28;19909;-76
2023/12/16 12:27:10;;;;;;;;;;;9.50;99.90;;;;;;5024060;28;19945;-77
2023/12/16 12:29:59;;;;;;;;;;;9.40;99.90;;;;;;5017419;28;19915;-77
2023/12/16 12:32:45;;;;;;;;;;;9.40;99.90;;;;;;5016448;28;19964;-77
2023/12/16 12:35:31;;;;;;;;;;;9.30;99.90;;;;;;5017448;28;19920;-77
2023/12/16 12:38:20;;;;;;;;;;;9.30;99.90;;;;;;5002571;28;20242;-77
2023/12/16 12:41:06;;;;;;;;;;;9.30;99.90;;;;;;5016479;28;20247;-76
2023/12/16 12:43:53;;;;;;;;;;;9.30;99.90;;;;;;5018451;28;19920;-76
2023/12/16 12:46:46;;;;;;;;;;;9.30;99.90;;;;;;5031199;28;19909;-76
2023/12/16 12:49:32;;;;;;;;;;;9.30;99.90;;;;;;5029292;28;19972;-76
2023/12/16 12:52:25;;;;;;;;;;;9.30;99.90;;;;;;5031024;28;19909;-77
2023/12/16 12:55:11;;;;;;;;;;;9.30;99.90;;;;;;5030061;28;20024;-77
2023/12/16 12:57:57;;;;;;;;;;;9.20;99.90;;;;;;5008656;28;20003;-76
2023/12/16 13:00:49;;;;;;;;;;;9.20;99.90;;;;;;5028663;28;19944;-76
2023/12/16 13:03:35;;;;;;;;;;;9.30;99.90;;;;;;5031286;28;20245;-76
2023/12/16 13:06:21;;;;;;;;;;;9.30;99.90;;;;;;5015439;28;20000;-76
2023/12/16 13:09:08;;;;;;;;;;;9.30;99.90;;;;;;5013131;28;19920;-77
2023/12/16 13:11:54;;;;;;;;;;;9.30;99.90;;;;;;5022723;28;19909;-76
2023/12/16 13:14:43;;;;;;;;;;;9.30;99.90;;;;;;5022121;28;19948;-77
2023/12/16 13:17:29;;;;;;;;;;;9.30;99.90;;;;;;5002902;28;20376;-76
2023/12/16 13:20:15;;;;;;;;;;;9.30;99.90;;;;;;5022963;28;19920;-76
2023/12/16 13:23:01;;;;;;;;;;;9.30;99.90;;;;;;5023510;28;19909;-76
2023/12/16 13:25:49;;;;;;;;;;;9.20;99.90;;;;;;5036631;28;19924;-76
2023/12/16 13:28:36;;;;;;;;;;;9.30;99.90;;;;;;5002697;28;19913;-75
2023/12/16 13:31:22;;;;;;;;;;;9.30;99.90;;;;;;5031793;28;20004;-78
2023/12/16 13:34:08;;;;;;;;;;;9.30;99.90;;;;;;5037133;28;20016;-76
2023/12/16 13:36:53;;;;;;;;;;;9.20;99.90;;;;;;5009408;28;19912;-75
2023/12/16 13:39:39;;;;;;;;;;;9.30;99.90;;;;;;5036028;28;19916;-75
2023/12/16 13:42:25;;;;;;;;;;;9.30;99.90;;;;;;5023638;28;19995;-74
2023/12/16 13:45:11;;;;;;;;;;;9.30;99.90;;;;;;5037353;28;19943;-76
2023/12/16 13:47:58;;;;;;;;;;;9.30;99.90;;;;;;5022124;28;19917;-77
2023/12/16 13:50:44;;;;;;;;;;;9.20;99.90;;;;;;5023596;28;19970;-77
2023/12/16 13:53:30;;;;;;;;;;;9.20;99.90;;;;;;5007877;28;20314;-76
2023/12/16 13:56:16;;;;;;;;;;;9.20;99.90;;;;;;5009860;28;20349;-76
2023/12/16 13:59:03;;;;;;;;;;;9.20;99.90;;;;;;5035293;28;19975;-75
2023/12/16 14:01:50;;;;;;;;;;;9.30;99.90;;;;;;5042539;28;20321;-76
2023/12/16 14:04:38;;;;;;;;;;;9.30;99.90;;;;;;5025521;28;19963;-75
2023/12/16 14:07:24;;;;;;;;;;;9.30;99.90;;;;;;5034902;28;19920;-76
2023/12/16 14:10:10;;;;;;;;;;;9.20;99.90;;;;;;5020321;28;20625;-76
2023/12/16 14:12:56;;;;;;;;;;;9.20;99.90;;;;;;5034928;28;19909;-75
2023/12/16 14:15:43;;;;;;;;;;;9.20;99.90;;;;;;4995750;28;20312;-77
2023/12/16 14:18:30;;;;;;;;;;;9.20;99.90;;;;;;5020783;28;19943;-77
2023/12/16 14:21:15;;;;;;;;;;;9.20;99.90;;;;;;5001328;28;19913;-75
2023/12/16 14:24:02;;;;;;;;;;;9.20;99.90;;;;;;5010212;28;19909;-76
2023/12/16 14:26:48;;;;;;;;;;;9.20;99.90;;;;;;5002593;28;20001;-76
2023/12/16 14:29:33;;;;;;;;;;;9.20;99.90;;;;;;5017512;28;19971;-76
2023/12/16 14:32:19;;;;;;;;;;;9.20;99.90;;;;;;5021952;28;19952;-76
2023/12/16 14:35:08;;;;;;;;;;;9.20;99.90;;;;;;5002953;28;20107;-75
2023/12/16 14:37:56;;;;;;;;;;;9.20;99.90;;;;;;5015886;28;20000;-75
2023/12/16 14:40:42;;;;;;;;;;;9.20;99.90;;;;;;5020626;28;19920;-76
2023/12/16 14:43:28;;;;;;;;;;;9.30;99.90;;;;;;5015215;28;19944;-77
2023/12/16 14:46:19;;;;;;;;;;;9.20;99.90;;;;;;5008605;28;19913;-76
2023/12/16 14:49:05;;;;;;;;;;;9.20;99.90;;;;;;5034651;28;19909;-76
2023/12/16 14:51:51;;;;;;;;;;;9.30;99.90;;;;;;5025676;28;19909;-75
2023/12/16 14:54:37;;;;;;;;;;;9.30;99.90;;;;;;5032035;28;19920;-75
2023/12/16 14:57:23;;;;;;;;;;;9.20;99.90;;;;;;5019885;28;20319;-75
2023/12/16 15:00:09;;;;;;;;;;;9.30;99.90;;;;;;5008038;28;19971;-75
2023/12/16 15:02:55;;;;;;;;;;;9.20;99.90;;;;;;5009104;28;19928;-75
2023/12/16 15:05:41;;;;;;;;;;;9.20;99.90;;;;;;5026923;28;19913;-75
2023/12/16 15:08:27;;;;;;;;;;;9.20;99.90;;;;;;5015620;28;19912;-75
2023/12/16 15:11:13;;;;;;;;;;;9.20;99.90;;;;;;5035549;28;20631;-75
2023/12/16 15:13:59;;;;;;;;;;;9.20;99.90;;;;;;5027649;28;19909;-75
2023/12/16 15:16:49;;;;;;;;;;;9.20;99.90;;;;;;5026698;28;20363;-77
2023/12/16 15:19:36;;;;;;;;;;;9.20;99.90;;;;;;5042644;28;19912;-75
2023/12/16 15:22:23;;;;;;;;;;;9.20;99.90;;;;;;5025819;28;19913;-75
2023/12/16 15:25:09;;;;;;;;;;;9.20;99.90;;;;;;5005960;28;19909;-75
2023/12/16 15:27:55;;;;;;;;;;;9.20;99.90;;;;;;5007365;28;19909;-75
2023/12/16 15:30:44;;;;;;;;;;;9.20;99.90;;;;;;5008084;28;20249;-75
2023/12/16 15:33:34;;;;;;;;;;;9.20;99.90;;;;;;5023983;28;19909;-76
2023/12/16 15:36:20;;;;;;;;;;;9.20;99.90;;;;;;5013566;28;19913;-75
2023/12/16 15:39:10;;;;;;;;;;;9.20;99.90;;;;;;5017541;28;19913;-76
2023/12/16 15:41:57;;;;;;;;;;;9.20;99.90;;;;;;5027141;28;19909;-75
2023/12/16 15:44:43;;;;;;;;;;;9.20;99.90;;;;;;5026084;28;19913;-75
2023/12/16 15:47:29;;;;;;;;;;;9.20;99.90;;;;;;5012655;28;19913;-76
2023/12/16 15:50:15;;;;;;;;;;;9.20;99.90;;;;;;5006665;28;19952;-75
2023/12/16 15:53:03;;;;;;;;;;;9.20;99.90;;;;;;5007873;28;19917;-76
2023/12/16 15:55:49;;;;;;;;;;;9.10;99.90;;;;;;5016988;28;19913;-75
2023/12/16 15:58:35;;;;;;;;;;;9.10;99.90;;;;;;5019752;28;19920;-75
2023/12/16 16:01:23;;;;;;;;;;;9.10;99.90;;;;;;5023914;28;20011;-75
2023/12/16 16:04:09;;;;;;;;;;;9.10;99.90;;;;;;5008147;28;19913;-75
2023/12/16 16:06:57;;;;;;;;;;;9.10;99.90;;;;;;5021907;28;19948;-75
2023/12/16 16:09:43;;;;;;;;;;;9.10;99.90;;;;;;5029556;28;19909;-74
2023/12/16 16:12:29;;;;;;;;;;;9.10;99.90;;;;;;5042402;28;19909;-75
2023/12/16 16:15:15;;;;;;;;;;;9.10;99.90;;;;;;5022581;28;20322;-75
2023/12/16 16:18:01;;;;;;;;;;;9.10;99.90;;;;;;5024199;28;20003;-75
2023/12/16 16:20:47;;;;;;;;;;;9.10;99.90;;;;;;5009112;28;19909;-75
2023/12/16 16:23:39;;;;;;;;;;;9.10;99.90;;;;;;5025775;28;20002;-76
2023/12/16 16:26:25;;;;;;;;;;;9.10;99.90;;;;;;5038212;28;19917;-75